createdAt,value
2022-12-03T00:00:33.358Z,102496.75
2022-12-03T00:02:59.987Z,102507.91
2022-12-03T00:05:26.544Z,102493.44
2022-12-03T00:07:53.128Z,102499.59
2022-12-03T00:10:19.850Z,102492.44
2022-12-03T00:12:47.222Z,102491.47
2022-12-03T00:15:13.639Z,102487.28
2022-12-03T00:17:40.360Z,102502.19
2022-12-03T00:20:18.222Z,102482.84
2022-12-03T00:22:44.835Z,102487.34
2022-12-03T00:25:11.281Z,102482.31
2022-12-03T00:27:37.871Z,102489.19
2022-12-03T00:30:05.115Z,102495.50
2022-12-03T00:32:31.536Z,102491.19
2022-12-03T00:34:58.078Z,102489.41
2022-12-03T00:37:24.538Z,102496.47
2022-12-03T00:39:50.953Z,102499.22
2022-12-03T00:42:17.333Z,102485.19
2022-12-03T00:44:43.799Z,102497.69
2022-12-03T00:47:10.668Z,102489.56
2022-12-03T00:49:37.136Z,102492.25
2022-12-03T00:52:03.816Z,102488.75
2022-12-03T00:54:32.338Z,102492.38
2022-12-03T00:56:58.903Z,102494.13
2022-12-03T00:59:25.455Z,102471.53
2022-12-03T01:01:52.036Z,102482.84
2022-12-03T01:04:18.617Z,102478.47
2022-12-03T01:06:45.090Z,102479.34
2022-12-03T01:09:11.517Z,102488.34
2022-12-03T01:11:38.022Z,102487.47
2022-12-03T01:14:06.519Z,102495.41
2022-12-03T01:16:33.430Z,102485.19
2022-12-03T01:18:59.957Z,102493.91
2022-12-03T01:21:26.410Z,102497.47
2022-12-03T01:23:52.916Z,102505.34
2022-12-03T01:26:19.601Z,102491.44
2022-12-03T01:28:46.077Z,102489.66
2022-12-03T01:31:31.232Z,102499.44
2022-12-03T01:33:57.780Z,102501.16
2022-12-03T01:36:24.218Z,102505.59
2022-12-03T01:38:50.720Z,102502.16
2022-12-03T01:41:18.557Z,102490.31
2022-12-03T01:43:46.005Z,102512.91
2022-12-03T01:46:14.731Z,102497.31
2022-12-03T01:48:41.316Z,102500.16
2022-12-03T01:51:08.188Z,102507.91
2022-12-03T01:53:34.695Z,102490.78
2022-12-03T01:56:01.184Z,102499.34
2022-12-03T01:58:29.468Z,102508.16
2022-12-03T02:01:01.482Z,102510.09
2022-12-03T02:03:28.482Z,102498.16
2022-12-03T02:05:56.797Z,102493.94
2022-12-03T02:08:32.268Z,102518.31
2022-12-03T02:11:02.901Z,102518.38
2022-12-03T02:13:29.480Z,102502.63
2022-12-03T02:15:56.310Z,102491.41
2022-12-03T02:18:23.017Z,102501.81
2022-12-03T02:21:21.821Z,102503.59
2022-12-03T02:24:18.318Z,102503.59
2022-12-03T02:26:44.911Z,102502.97
2022-12-03T02:29:11.494Z,102496.97
2022-12-03T02:31:38.191Z,102497.72
2022-12-03T02:34:08.647Z,102500.31
2022-12-03T02:36:36.136Z,102492.44
2022-12-03T02:39:05.017Z,102503.06
2022-12-03T02:41:50.176Z,102503.19
2022-12-03T02:44:16.840Z,102507.63
2022-12-03T02:46:43.308Z,102519.19
2022-12-03T02:49:10.162Z,102493.38
2022-12-03T02:51:36.575Z,102500.19
2022-12-03T02:54:03.643Z,102507.09
2022-12-03T02:56:32.427Z,102497.81
2022-12-03T02:59:02.080Z,102503.88
2022-12-03T03:01:28.728Z,102504.59
2022-12-03T03:03:55.921Z,102508.16
2022-12-03T03:06:22.450Z,102506.50
2022-12-03T03:08:49.173Z,102498.84
2022-12-03T03:11:15.714Z,102506.72
2022-12-03T03:13:42.570Z,102504.19
2022-12-03T03:16:09.422Z,102506.94
2022-12-03T03:18:36.903Z,102504.28
2022-12-03T03:21:04.362Z,102505.31
2022-12-03T03:23:31.178Z,102501.28
2022-12-03T03:26:01.599Z,102505.41
2022-12-03T03:28:29.951Z,102520.31
2022-12-03T03:30:58.300Z,102477.88
2022-12-03T03:33:27.809Z,102477.00
2022-12-03T03:35:54.558Z,102471.03
2022-12-03T03:38:23.655Z,102468.66
2022-12-03T03:40:51.911Z,102488.53
2022-12-03T03:43:20.171Z,102500.63
2022-12-03T03:45:46.966Z,102496.22
2022-12-03T03:48:14.031Z,102488.44
2022-12-03T03:50:41.985Z,102488.66
2022-12-03T03:53:08.745Z,102487.69
2022-12-03T03:55:35.374Z,102487.69
2022-12-03T03:58:02.051Z,102479.06
2022-12-03T04:00:29.507Z,102477.19
2022-12-03T04:02:56.343Z,102468.50
2022-12-03T04:05:24.836Z,102472.13
2022-12-03T04:07:51.551Z,102460.63
2022-12-03T04:10:36.725Z,102440.97
2022-12-03T04:13:03.838Z,102472.13
2022-12-03T04:15:30.514Z,102472.16
2022-12-03T04:18:15.435Z,102473.84
2022-12-03T04:20:42.000Z,102469.53
2022-12-03T04:23:08.738Z,102482.63
2022-12-03T04:25:53.784Z,102455.94
2022-12-03T04:28:39.288Z,102485.22
2022-12-03T04:31:26.537Z,102464.41
2022-12-03T04:34:12.481Z,102477.53
2022-12-03T04:36:41.315Z,102488.78
2022-12-03T04:39:07.818Z,102481.97
2022-12-03T04:41:34.309Z,102477.59
2022-12-03T04:44:19.279Z,102490.66
2022-12-03T04:46:46.488Z,102480.28
2022-12-03T04:49:12.996Z,102482.81
2022-12-03T04:51:39.535Z,102484.72
2022-12-03T04:54:06.152Z,102484.72
2022-12-03T04:56:32.757Z,102483.09
2022-12-03T04:58:59.318Z,102474.38
2022-12-03T05:01:25.859Z,102492.63
2022-12-03T05:03:52.384Z,102498.72
2022-12-03T05:06:18.870Z,102494.31
2022-12-03T05:08:45.335Z,102476.16
2022-12-03T05:11:11.900Z,102465.03
2022-12-03T05:13:38.349Z,102475.28
2022-12-03T05:16:04.960Z,102483.00
2022-12-03T05:18:31.389Z,102474.38
2022-12-03T05:20:58.248Z,102482.06
2022-12-03T05:23:24.772Z,102466.50
2022-12-03T05:25:51.600Z,102476.09
2022-12-03T05:28:18.258Z,102465.63
2022-12-03T05:30:44.921Z,102464.91
2022-12-03T05:33:11.581Z,102487.25
2022-12-03T05:35:38.106Z,102475.97
2022-12-03T05:38:04.580Z,102483.66
2022-12-03T05:40:31.196Z,102467.25
2022-12-03T05:42:57.874Z,102481.97
2022-12-03T05:45:26.647Z,102473.03
2022-12-03T05:47:54.694Z,102461.81
2022-12-03T05:50:23.076Z,102463.59
2022-12-03T05:52:50.031Z,102468.75
2022-12-03T05:55:17.082Z,102459.22
2022-12-03T05:57:43.998Z,102453.25
2022-12-03T06:00:25.184Z,102474.03
2022-12-03T06:02:52.342Z,102473.28
2022-12-03T06:05:19.877Z,102474.25
2022-12-03T06:07:47.967Z,102473.44
2022-12-03T06:10:17.737Z,102465.63
2022-12-03T06:12:44.161Z,102457.81
2022-12-03T06:15:11.327Z,102463.19
2022-12-03T06:17:38.312Z,102465.94
2022-12-03T06:20:05.637Z,102459.00
2022-12-03T06:22:32.266Z,102463.41
2022-12-03T06:25:03.559Z,102448.03
2022-12-03T06:27:33.001Z,102438.41
2022-12-03T06:29:59.498Z,102457.63
2022-12-03T06:32:25.948Z,102456.63
2022-12-03T06:34:52.715Z,102439.31
2022-12-03T06:37:19.389Z,102441.09
2022-12-03T06:39:45.860Z,102447.13
2022-12-03T06:42:12.401Z,102452.41
2022-12-03T06:44:38.794Z,102436.78
2022-12-03T06:47:05.201Z,102438.44
2022-12-03T06:49:31.719Z,102448.97
2022-12-03T06:51:58.124Z,102449.75
2022-12-03T06:54:24.587Z,102454.94
2022-12-03T06:56:51.004Z,102446.38
2022-12-03T06:59:17.507Z,102456.78
2022-12-03T07:01:44.301Z,102449.66
2022-12-03T07:04:10.821Z,102450.56
2022-12-03T07:06:37.336Z,102454.00
2022-12-03T07:09:03.888Z,102441.91
2022-12-03T07:11:33.040Z,102454.84
2022-12-03T07:14:05.164Z,102451.50
2022-12-03T07:16:31.828Z,102453.31
2022-12-03T07:18:58.318Z,102454.13
2022-12-03T07:21:24.752Z,102457.03
2022-12-03T07:23:51.198Z,102458.69
2022-12-03T07:26:17.712Z,102455.09
2022-12-03T07:28:44.168Z,102457.69
2022-12-03T07:31:10.644Z,102443.91
2022-12-03T07:33:37.159Z,102457.78
2022-12-03T07:36:03.770Z,102455.97
2022-12-03T07:38:30.167Z,102466.28
2022-12-03T07:40:56.616Z,102460.06
2022-12-03T07:43:24.207Z,102444.53
2022-12-03T07:45:50.826Z,102451.44
2022-12-03T07:48:17.455Z,102463.41
2022-12-03T07:50:44.002Z,102463.41
2022-12-03T07:53:10.571Z,102452.16
2022-12-03T07:55:37.112Z,102459.91
2022-12-03T07:58:03.628Z,102448.56
2022-12-03T08:00:30.224Z,102459.81
2022-12-03T08:02:56.733Z,102433.69
2022-12-03T08:05:23.333Z,102447.41
2022-12-03T08:07:49.772Z,102450.06
2022-12-03T08:10:16.323Z,102446.66
2022-12-03T08:12:42.845Z,102446.72
2022-12-03T08:15:21.214Z,102458.78
2022-12-03T08:17:53.773Z,102452.81
2022-12-03T08:20:28.845Z,102445.84
2022-12-03T08:22:59.144Z,102441.22
2022-12-03T08:25:29.717Z,102443.44
2022-12-03T08:28:19.026Z,102448.88
2022-12-03T08:30:55.997Z,102432.50
2022-12-03T08:33:28.138Z,102445.44
2022-12-03T08:35:55.323Z,102430.59
2022-12-03T08:38:24.374Z,102434.75
2022-12-03T08:40:52.891Z,102432.06
2022-12-03T08:43:21.259Z,102436.97
2022-12-03T08:45:49.777Z,102443.94
2022-12-03T08:48:19.318Z,102439.41
2022-12-03T08:50:46.454Z,102434.88
2022-12-03T08:53:29.788Z,102433.63
2022-12-03T08:56:02.172Z,102420.31
2022-12-03T08:58:36.586Z,102418.34
2022-12-03T09:01:24.396Z,102417.22
2022-12-03T09:03:55.562Z,102411.75
2022-12-03T09:06:22.845Z,102415.88
2022-12-03T09:08:49.249Z,102414.63
2022-12-03T09:11:15.863Z,102418.66
2022-12-03T09:13:42.358Z,102417.50
2022-12-03T09:16:08.801Z,102410.94
2022-12-03T09:18:35.317Z,102414.41
2022-12-03T09:21:01.697Z,102395.75
2022-12-03T09:23:28.314Z,102410.47
2022-12-03T09:25:54.804Z,102406.78
2022-12-03T09:28:21.251Z,102410.09
2022-12-03T09:30:47.671Z,102407.16
2022-12-03T09:33:14.158Z,102389.63
2022-12-03T09:35:40.638Z,102406.78
2022-12-03T09:38:07.151Z,102396.81
2022-12-03T09:40:34.141Z,102389.56
2022-12-03T09:43:00.970Z,102398.78
2022-12-03T09:45:27.550Z,102389.84
2022-12-03T09:47:55.284Z,102399.09
2022-12-03T09:50:26.308Z,102379.41
2022-12-03T09:52:55.273Z,102393.00
2022-12-03T09:55:28.197Z,102380.41
2022-12-03T09:57:56.320Z,102388.84
2022-12-03T10:00:29.253Z,102396.38
2022-12-03T10:03:02.881Z,102390.78
2022-12-03T10:05:29.385Z,102386.28
2022-12-03T10:08:04.257Z,102374.50
2022-12-03T10:10:30.958Z,102374.38
2022-12-03T10:12:57.520Z,102368.94
2022-12-03T10:15:24.350Z,102361.84
2022-12-03T10:17:54.546Z,102359.88
2022-12-03T10:20:22.015Z,102369.31
2022-12-03T10:22:49.416Z,102361.84
2022-12-03T10:25:18.606Z,102356.63
2022-12-03T10:27:57.964Z,102361.38
2022-12-03T10:30:28.001Z,102357.94
2022-12-03T10:32:57.009Z,102355.06
2022-12-03T10:35:26.309Z,102355.78
2022-12-03T10:37:57.156Z,102350.31
2022-12-03T10:40:35.801Z,102356.38
2022-12-03T10:43:14.469Z,102359.66
2022-12-03T10:45:42.555Z,102355.44
2022-12-03T10:48:20.509Z,102356.22
2022-12-03T10:50:55.749Z,102344.25
2022-12-03T10:53:27.183Z,102355.00
2022-12-03T10:55:59.330Z,102330.97
2022-12-03T10:58:28.863Z,102325.81
2022-12-03T11:00:57.960Z,102333.56
2022-12-03T11:03:27.187Z,102332.97
2022-12-03T11:05:55.501Z,102328.69
2022-12-03T11:08:27.910Z,102342.25
2022-12-03T11:11:00.730Z,102330.97
2022-12-03T11:13:34.880Z,102332.84
2022-12-03T11:16:03.968Z,102333.78
2022-12-03T11:18:36.534Z,102336.41
2022-12-03T11:21:05.584Z,102331.28
2022-12-03T11:23:44.217Z,102323.31
2022-12-03T11:26:19.766Z,102322.84
2022-12-03T11:28:46.490Z,102320.28
2022-12-03T11:31:35.589Z,102310.53
2022-12-03T11:34:20.576Z,102303.72
2022-12-03T11:37:11.831Z,102309.13
2022-12-03T11:39:59.368Z,102300.41
2022-12-03T11:42:25.817Z,102303.34
2022-12-03T11:45:04.792Z,102296.25
2022-12-03T11:47:42.265Z,102302.47
2022-12-03T11:50:17.876Z,102292.75
2022-12-03T11:52:47.164Z,102283.41
2022-12-03T11:55:25.241Z,102286.81
2022-12-03T11:57:58.417Z,102290.31
2022-12-03T12:00:25.572Z,102280.97
2022-12-03T12:02:53.960Z,102285.41
2022-12-03T12:05:33.467Z,102278.38
2022-12-03T12:08:02.764Z,102270.50
2022-12-03T12:10:38.949Z,102277.59
2022-12-03T12:13:05.776Z,102280.38
2022-12-03T12:15:38.202Z,102271.66
2022-12-03T12:18:33.539Z,102250.00
2022-12-03T12:21:37.497Z,102266.53
2022-12-03T12:24:40.445Z,102268.38
2022-12-03T12:27:27.173Z,102245.06
2022-12-03T12:30:01.843Z,102246.56
2022-12-03T12:32:31.571Z,102243.13
2022-12-03T12:35:22.434Z,102226.09
2022-12-03T12:38:00.157Z,102231.41
2022-12-03T12:40:32.805Z,102240.06
2022-12-03T12:43:11.577Z,102227.69
2022-12-03T12:45:43.017Z,102231.09
2022-12-03T12:48:15.172Z,102223.16
2022-12-03T12:50:44.298Z,102232.88
2022-12-03T12:53:10.687Z,102224.94
2022-12-03T12:55:38.897Z,102204.16
2022-12-03T12:58:15.448Z,102207.44
2022-12-03T13:00:42.116Z,102209.16
2022-12-03T13:03:10.722Z,102204.00
2022-12-03T13:05:45.755Z,102203.94
2022-12-03T13:08:27.793Z,102212.34
2022-12-03T13:10:56.626Z,102208.69
2022-12-03T13:13:44.034Z,102208.69
2022-12-03T13:16:26.499Z,102206.84
2022-12-03T13:18:55.460Z,102203.31
2022-12-03T13:21:43.421Z,102198.81
2022-12-03T13:24:30.389Z,102184.72
2022-12-03T13:26:57.466Z,102198.88
2022-12-03T13:29:25.616Z,102209.56
2022-12-03T13:32:11.912Z,102197.25
2022-12-03T13:34:38.523Z,102187.13
2022-12-03T13:37:13.781Z,102192.63
2022-12-03T13:39:46.387Z,102192.69
2022-12-03T13:42:37.566Z,102188.47
2022-12-03T13:45:24.791Z,102198.00
2022-12-03T13:48:03.611Z,102199.13
2022-12-03T13:50:41.007Z,102202.63
2022-12-03T13:53:33.175Z,102203.50
2022-12-03T13:56:31.765Z,102208.09
2022-12-03T13:59:00.300Z,102214.47
2022-12-03T14:01:27.662Z,102197.28
2022-12-03T14:03:56.659Z,102194.59
2022-12-03T14:06:23.153Z,102198.94
2022-12-03T14:08:49.690Z,102184.38
2022-12-03T14:11:34.658Z,102185.31
2022-12-03T14:14:01.256Z,102201.13
2022-12-03T14:16:27.817Z,102188.88
2022-12-03T14:18:54.537Z,102185.53
2022-12-03T14:21:20.960Z,102181.22
2022-12-03T14:23:47.556Z,102179.59
2022-12-03T14:26:14.007Z,102175.53
2022-12-03T14:28:40.592Z,102176.53
2022-12-03T14:31:07.039Z,102162.88
2022-12-03T14:33:33.741Z,102175.81
2022-12-03T14:36:00.458Z,102163.94
2022-12-03T14:38:26.997Z,102166.59
2022-12-03T14:40:53.476Z,102164.06
2022-12-03T14:43:19.881Z,102165.19
2022-12-03T14:45:46.431Z,102161.75
2022-12-03T14:48:12.881Z,102177.53
2022-12-03T14:50:39.432Z,102167.28
2022-12-03T14:53:05.863Z,102169.94
2022-12-03T14:55:32.376Z,102158.72
2022-12-03T14:57:58.768Z,102171.16
2022-12-03T15:00:25.674Z,102172.09
2022-12-03T15:02:52.224Z,102155.78
2022-12-03T15:05:26.459Z,102167.94
2022-12-03T15:07:54.936Z,102179.56
2022-12-03T15:10:21.404Z,102168.13
2022-12-03T15:12:47.889Z,102174.56
2022-12-03T15:15:14.373Z,102158.84
2022-12-03T15:17:41.754Z,102166.56
2022-12-03T15:20:08.798Z,102173.41
2022-12-03T15:22:35.268Z,102171.00
2022-12-03T15:25:03.333Z,102165.72
2022-12-03T15:27:29.822Z,102184.03
2022-12-03T15:29:56.469Z,102178.94
2022-12-03T15:32:23.054Z,102177.28
2022-12-03T15:34:51.296Z,102163.28
2022-12-03T15:37:17.818Z,102156.81
2022-12-03T15:39:48.324Z,102161.13
2022-12-03T15:42:15.349Z,102155.97
2022-12-03T15:44:41.770Z,102161.31
2022-12-03T15:47:08.189Z,102150.38
2022-12-03T15:49:34.590Z,102155.59
2022-12-03T15:52:01.085Z,102154.06
2022-12-03T15:54:27.499Z,102144.47
2022-12-03T15:56:57.236Z,102158.34
2022-12-03T15:59:26.465Z,102156.09
2022-12-03T16:01:52.903Z,102155.78
2022-12-03T16:04:19.400Z,102152.28
2022-12-03T16:06:45.840Z,102152.53
2022-12-03T16:09:12.236Z,102134.28
2022-12-03T16:11:38.794Z,102149.81
2022-12-03T16:14:05.188Z,102111.19
2022-12-03T16:16:31.670Z,102138.75
2022-12-03T16:18:58.221Z,102143.81
2022-12-03T16:21:26.993Z,102151.03
2022-12-03T16:23:54.308Z,102141.59
2022-12-03T16:26:21.191Z,102141.72
2022-12-03T16:28:47.795Z,102136.56
2022-12-03T16:31:14.446Z,102132.72
2022-12-03T16:33:40.864Z,102144.09
2022-12-03T16:36:07.580Z,102148.44
2022-12-03T16:38:34.045Z,102154.06
2022-12-03T16:41:01.302Z,102146.25
2022-12-03T16:43:28.119Z,102151.66
2022-12-03T16:46:14.635Z,102143.88
2022-12-03T16:48:41.696Z,102156.88
2022-12-03T16:51:08.291Z,102143.94
2022-12-03T16:53:34.865Z,102152.06
2022-12-03T16:56:02.264Z,102135.44
2022-12-03T16:58:28.813Z,102146.31
2022-12-03T17:00:55.509Z,102153.38
2022-12-03T17:03:22.787Z,102153.31
2022-12-03T17:05:49.524Z,102142.16
2022-12-03T17:08:16.386Z,102144.59
2022-12-03T17:10:43.972Z,102146.16
2022-12-03T17:13:13.336Z,102144.50
2022-12-03T17:15:40.998Z,102134.84
2022-12-03T17:18:08.516Z,102142.66
2022-12-03T17:20:35.585Z,102140.72
2022-12-03T17:23:02.191Z,102134.78
2022-12-03T17:25:28.992Z,102135.59
2022-12-03T17:27:55.815Z,102135.50
2022-12-03T17:30:22.383Z,102099.34
2022-12-03T17:32:50.349Z,102139.06
2022-12-03T17:35:17.393Z,102140.59
2022-12-03T17:37:43.846Z,102133.59
2022-12-03T17:40:14.316Z,102137.16
2022-12-03T17:42:40.788Z,102118.28
2022-12-03T17:45:07.968Z,102119.00
2022-12-03T17:47:34.362Z,102105.09
2022-12-03T17:50:00.773Z,102105.94
2022-12-03T17:52:27.182Z,102121.44
2022-12-03T17:55:10.958Z,102108.47
2022-12-03T17:57:39.653Z,102116.97
2022-12-03T18:00:06.857Z,102123.03
2022-12-03T18:02:33.257Z,102104.75
2022-12-03T18:04:59.687Z,102119.34
2022-12-03T18:07:26.180Z,102101.13
2022-12-03T18:09:53.359Z,102118.22
2022-12-03T18:12:19.948Z,102119.00
2022-12-03T18:14:46.365Z,102117.44
2022-12-03T18:17:13.781Z,102124.94
2022-12-03T18:19:40.426Z,102104.19
2022-12-03T18:22:07.030Z,102113.59
2022-12-03T18:24:33.501Z,102088.47
2022-12-03T18:26:59.999Z,102072.03
2022-12-03T18:29:26.657Z,102113.78
2022-12-03T18:31:53.166Z,102118.19
2022-12-03T18:34:19.703Z,102109.56
2022-12-03T18:36:46.545Z,102129.75
2022-12-03T18:39:25.552Z,102132.88
2022-12-03T18:41:53.137Z,102102.66
2022-12-03T18:44:19.677Z,102139.81
2022-12-03T18:46:53.327Z,102118.88
2022-12-03T18:49:20.944Z,102124.88
2022-12-03T18:51:48.458Z,102119.00
2022-12-03T18:54:15.426Z,102130.09
2022-12-03T18:56:41.984Z,102111.94
2022-12-03T18:59:09.418Z,102124.88
2022-12-03T19:01:36.299Z,102125.81
2022-12-03T19:04:03.776Z,102129.25
2022-12-03T19:06:30.551Z,102125.81
2022-12-03T19:08:57.960Z,102122.38
2022-12-03T19:11:24.618Z,102114.63
2022-12-03T19:13:51.885Z,102095.06
2022-12-03T19:16:18.625Z,102124.03
2022-12-03T19:18:45.801Z,102126.72
2022-12-03T19:21:15.339Z,102122.50
2022-12-03T19:23:58.883Z,102127.66
2022-12-03T19:26:29.622Z,102092.34
2022-12-03T19:28:56.355Z,102123.28
2022-12-03T19:31:22.905Z,102107.72
2022-12-03T19:33:50.671Z,102114.50
2022-12-03T19:36:26.692Z,102117.09
2022-12-03T19:38:57.389Z,102110.41
2022-12-03T19:41:27.189Z,102129.69
2022-12-03T19:43:55.317Z,102123.63
2022-12-03T19:46:24.066Z,102127.91
2022-12-03T19:48:51.373Z,102138.53
2022-12-03T19:51:34.175Z,102134.28
2022-12-03T19:54:02.421Z,102123.16
2022-12-03T19:56:30.372Z,102136.25
2022-12-03T19:58:57.722Z,102138.16
2022-12-03T20:01:27.101Z,102131.22
2022-12-03T20:03:57.678Z,102127.66
2022-12-03T20:06:27.225Z,102118.44
2022-12-03T20:08:58.483Z,102116.84
2022-12-03T20:11:31.398Z,102134.19
2022-12-03T20:14:00.101Z,102140.41
2022-12-03T20:16:27.703Z,102137.88
2022-12-03T20:19:00.192Z,102120.69
2022-12-03T20:21:28.675Z,102136.34
2022-12-03T20:23:55.661Z,102135.44
2022-12-03T20:26:23.103Z,102139.91
2022-12-03T20:28:50.095Z,102134.78
2022-12-03T20:31:18.843Z,102128.97
2022-12-03T20:33:48.437Z,102136.88
2022-12-03T20:36:17.887Z,102128.44
2022-12-03T20:38:44.928Z,102118.06
2022-12-03T20:41:14.438Z,102144.06
2022-12-03T20:43:40.966Z,102136.34
2022-12-03T20:46:17.743Z,102145.97
2022-12-03T20:48:45.325Z,102135.78
2022-12-03T20:51:20.694Z,102108.25
2022-12-03T20:53:47.546Z,102108.47
2022-12-03T20:56:25.930Z,102134.22
2022-12-03T20:58:53.659Z,102148.44
2022-12-03T21:01:27.825Z,102136.06
2022-12-03T21:03:56.459Z,102135.25
2022-12-03T21:06:25.425Z,102104.41
2022-12-03T21:08:57.041Z,102145.94
2022-12-03T21:11:25.942Z,102128.03
2022-12-03T21:13:54.528Z,102122.81
2022-12-03T21:16:51.921Z,102141.81
2022-12-03T21:19:11.976Z,102138.53
2022-12-03T21:21:38.370Z,102137.72
2022-12-03T21:24:05.003Z,102113.41
2022-12-03T21:26:31.569Z,102134.09
2022-12-03T21:28:58.083Z,102154.34
2022-12-03T21:31:26.630Z,102132.88
2022-12-03T21:33:54.475Z,102165.00
2022-12-03T21:36:21.005Z,102143.13
2022-12-03T21:38:48.160Z,102133.59
2022-12-03T21:41:15.134Z,102138.75
2022-12-03T21:43:42.468Z,102144.88
2022-12-03T21:47:10.568Z,102157.22
2022-12-03T21:48:59.779Z,102155.50
2022-12-03T21:51:26.217Z,102152.09
2022-12-03T21:53:53.245Z,102151.19
2022-12-03T21:56:20.225Z,102143.66
2022-12-03T21:58:47.334Z,102153.13
2022-12-03T22:01:20.494Z,102134.19
2022-12-03T22:03:47.906Z,102149.78
2022-12-03T22:06:15.272Z,102149.09
2022-12-03T22:08:42.084Z,102156.91
2022-12-03T22:11:14.335Z,102148.13
2022-12-03T22:13:41.827Z,102137.75
2022-12-03T22:16:11.110Z,102147.38
2022-12-03T22:18:38.270Z,102136.25
2022-12-03T22:21:13.783Z,102147.53
2022-12-03T22:23:40.914Z,102151.25
2022-12-03T22:26:10.464Z,102143.50
2022-12-03T22:28:37.214Z,102149.84
2022-12-03T22:31:07.963Z,102148.28
2022-12-03T22:33:35.679Z,102141.81
2022-12-03T22:36:06.413Z,102138.06
2022-12-03T22:38:33.091Z,102119.13
2022-12-03T22:41:00.193Z,102142.56
2022-12-03T22:43:26.922Z,102140.97
2022-12-03T22:45:56.543Z,102135.63
2022-12-03T22:48:24.492Z,102137.41
2022-12-03T22:50:52.518Z,102128.75
2022-12-03T22:53:19.916Z,102127.84
2022-12-03T22:55:57.702Z,102099.44
2022-12-03T22:58:28.019Z,102132.09
2022-12-03T23:01:01.281Z,102138.94
2022-12-03T23:03:29.267Z,102125.44
2022-12-03T23:05:55.768Z,102124.47
2022-12-03T23:08:23.462Z,102152.06
2022-12-03T23:10:52.491Z,102137.09
2022-12-03T23:13:20.284Z,102134.59
2022-12-03T23:15:49.337Z,102131.13
2022-12-03T23:18:16.514Z,102130.97
2022-12-03T23:20:52.286Z,102114.63
2022-12-03T23:23:20.936Z,102122.47
2022-12-03T23:26:05.256Z,102110.25
2022-12-03T23:28:33.363Z,102132.94
2022-12-03T23:31:00.221Z,102126.63
2022-12-03T23:33:27.274Z,102145.97
2022-12-03T23:35:53.721Z,102105.97
2022-12-03T23:38:20.403Z,102118.00
2022-12-03T23:40:48.419Z,102117.84
2022-12-03T23:43:15.565Z,102111.88
2022-12-03T23:45:42.050Z,102111.00
2022-12-03T23:48:08.654Z,102114.56
2022-12-03T23:50:38.145Z,102082.72
2022-12-03T23:53:04.690Z,102122.16
2022-12-03T23:55:31.154Z,102128.22
2022-12-03T23:57:57.625Z,102118.56
